Airfield :
LOGIN :

Register | Disclaimer

   EN    FR    IT 

 










Legend :    VFR   Marginal VFR   IFR   Intensive IFR   Very Intensive IFR
Visi :
Ceiling :
>= 8 km
>= 3000ft
5 to 8 km
1000 to 3000 ft
1500m to 5 km
500 to 1000 ft
800 to 1500m
200 to 500 ft
< 800m
< 200 ft
Symbols :   Thunderstorms  Fog  Heavy snow  Heavy precipitations  Wind > 20 kt
SIGMETs :     Misc.  Thunderstorms  Icing  Turbulence  Mountain Waves  Volcanic Ashes






- Airport Elevation : 463 ft
- IATA code : QAS


DAOI - Chlef Int.

CURRENT METAR :
  • 021200Z 24018KT 9999 SCT023 SCT026 16/11 Q1011

EXPIRED METARs :
  • 021100Z 24020KT 9999 FEW023 SCT026 17/11 Q1012
  • 021000Z 24014KT 9999 FEW023 SCT026 15/11 Q1013

TAF TAF DAOI
Valid from the 02 at 12:00 until the 03 at 12:00 UTC


021100Z 0212/0312 24015KT 9999 FEW023 SCT026
PROB30
TEMPO 0214/0218 RA
BECMG 0220/0223 VRB02KT
PROB40
TEMPO 0304/0306 5000 BR SCT010
BECMG 0310/0312 32010KT SCT026



MET'MAP, your aeronautical weather chart ! - Copyright ORBIFLY December 2007 - Disclaimer

ORBIFLY MET'MAP TEAM :

Programming & Development : Alexandra Zaïnal
Concept & original design : Baudouin d'Aumeries
Assistance for programming : Marc-Olivier Méhu
Technical & hardware support : Manuel Goepfert

Contact : metmap@orbifly.com




SOURCES & CREDITS :

   NOAA